Strona główna
METAR-TAF:

METAR-TAF

Lotnisko :

Port lotniczy Koror

Koror, Babeldaob, Palau

Szerokość geograficzna: 07-22N, Długość geograficzna: 134-32E, wysokość: 54 m

Aktualna obserwacja pogody

Raport powstał 21 minut temu, godzina 04:50 UTC
Wiatr 5 kt od północno-północny wschód
Temperatura 30°C
Wilgotność 75%
Ciśnienie 1008 hPa
Widzialność: 20.9 km
Rozproszone chmury na wysokości 1500 ft, Cumulusy wypiętrznone.
Przerywane chmury na wysokości 12000 ft
Przerywane chmury na wysokości 30000 ft
przelotny w pobliże

METAR: PTRO 070450Z 03005KT 13SM VCSH SCT015TCU BKN120 BKN300 30/25 A2976 RMK VCSH E TCU E

czas: 14:11 (05:11 UTC)

Prognoza

Raport powstał 1 godzina i 10 minut temu, godzina 04:01 UTC
Prognoza ważna od 07 godzina 04 UTC do 07 godzina 24 UTC
Wiatr 5 kt z kierunków zmiennych
Widzialność: 10 km
Rozproszone chmury na wysokości 1600 ft
Rozproszone chmury na wysokości 5000 ft
przelotny w pobliże

TAF: PTRO 070401Z 0704/0724 VRB05KT P6SM VCSH SCT016 SCT050

Obserwacja i prognoza pogody dla ponad 4000 lotnisk (raport METAR i TAF).

Dostępne stacje oznaczono żółtymi i czerwonymi punktami na mapie.

Najedź kursorem aby zobaczyć nazwę stacji.

Kliknij aby zobaczyć obserwacje i prognozy pogody.

Aby zmienić mapę: kliknij na zielony przycisk z czarnym krzyżykiem, aby powiększyć; na zielony przycisk z myślnikiem, aby pomniejszyć; na zielone strzałki, aby przejść do map sąsiednich.


METAR-TAF: